Time;durP1;ratioP1;P1;durP2;ratioP2;P2;SDS_P1;SDS_P2;PMS_P1;PMS_P2;Temp;Humidity;BMP_temperature;BMP_pressure;BME280_temperature;BME280_humidity;BME280_pressure;Samples;Min_cycle;Max_cycle;Signal;HPM_P1;HPM_P2
2023/09/04 00:02:06;;;;;;;6.22;3.53;;;16.60;99.90;;;;;;4889321;29;20096;-75
2023/09/04 00:04:32;;;;;;;6.45;4.05;;;16.50;99.90;;;;;;4889001;29;20055;-75
2023/09/04 00:06:58;;;;;;;5.47;3.33;;;16.40;99.90;;;;;;4887560;29;20530;-75
2023/09/04 00:09:24;;;;;;;5.80;3.95;;;16.40;99.90;;;;;;4872231;29;20037;-75
2023/09/04 00:11:49;;;;;;;4.50;3.35;;;16.40;99.90;;;;;;4872060;29;20248;-76
2023/09/04 00:14:16;;;;;;;5.15;3.58;;;16.40;99.90;;;;;;4887787;29;20025;-76
2023/09/04 00:16:42;;;;;;;4.68;3.55;;;16.40;99.90;;;;;;4888657;29;20040;-76
2023/09/04 00:19:08;;;;;;;5.45;4.05;;;16.40;99.90;;;;;;4889264;29;20033;-74
2023/09/04 00:21:34;;;;;;;8.95;4.00;;;16.30;99.90;;;;;;4888677;29;20021;-77
2023/09/04 00:24:00;;;;;;;5.95;4.10;;;16.30;99.90;;;;;;4888603;29;20043;-76
2023/09/04 00:26:26;;;;;;;6.07;4.25;;;16.20;99.90;;;;;;4872393;29;20029;-77
2023/09/04 00:28:51;;;;;;;6.72;3.70;;;16.20;99.90;;;;;;4887478;29;20029;-76
2023/09/04 04:43:44;;;;;;;9.48;6.10;;;14.40;99.90;;;;;;5860073;23;20039;-75
2023/09/04 04:46:13;;;;;;;9.48;5.93;;;14.40;99.90;;;;;;4911865;29;20044;-77
2023/09/04 04:48:40;;;;;;;8.68;6.38;;;14.30;99.90;;;;;;4905004;29;20141;-76
2023/09/04 04:51:07;;;;;;;9.80;7.07;;;14.30;99.90;;;;;;4902811;29;20036;-76
2023/09/04 04:53:34;;;;;;;10.65;6.15;;;14.30;99.90;;;;;;4912229;29;20024;-77
2023/09/04 04:56:00;;;;;;;11.77;7.15;;;14.30;99.90;;;;;;4890272;29;20021;-77
2023/09/04 04:58:27;;;;;;;8.40;6.50;;;14.40;99.90;;;;;;4905992;29;20397;-76
2023/09/04 05:00:52;;;;;;;9.35;6.93;;;14.30;99.90;;;;;;4889643;29;20107;-77
2023/09/04 05:03:19;;;;;;;7.97;5.95;;;14.30;99.90;;;;;;4908984;29;20040;-77
2023/09/04 05:05:45;;;;;;;8.85;6.00;;;14.40;99.90;;;;;;4890873;29;20137;-75
2023/09/04 05:08:12;;;;;;;9.18;5.75;;;14.40;99.90;;;;;;4891157;29;20025;-78
2023/09/04 05:10:38;;;;;;;8.57;5.68;;;14.40;99.90;;;;;;4914326;29;20080;-77
2023/09/04 05:13:04;;;;;;;8.35;5.35;;;14.50;99.90;;;;;;4913951;29;20055;-75
2023/09/04 05:15:29;;;;;;;8.80;5.93;;;14.50;99.90;;;;;;4912767;29;20318;-75
2023/09/04 05:17:56;;;;;;;9.32;5.53;;;14.50;99.90;;;;;;4918861;29;20021;-77
2023/09/04 05:20:22;;;;;;;8.70;5.30;;;14.50;99.90;;;;;;4907840;29;20123;-78
2023/09/04 05:22:48;;;;;;;10.38;5.78;;;14.60;99.90;;;;;;4902802;29;20033;-76
2023/09/04 05:25:13;;;;;;;9.85;5.18;;;14.60;99.90;;;;;;4896333;29;20090;-79
2023/09/04 05:27:39;;;;;;;8.63;5.45;;;14.60;99.90;;;;;;4891711;29;20060;-78
2023/09/04 05:30:05;;;;;;;8.82;5.32;;;14.60;99.90;;;;;;4891409;29;20048;-77
2023/09/04 05:32:31;;;;;;;8.27;5.30;;;14.60;99.90;;;;;;4890770;29;20333;-78
2023/09/04 05:34:57;;;;;;;7.63;5.15;;;14.60;99.90;;;;;;4890726;29;20029;-79
2023/09/04 05:37:22;;;;;;;7.50;5.40;;;14.70;99.90;;;;;;4891815;29;20052;-79
2023/09/04 05:39:48;;;;;;;7.47;5.05;;;14.80;99.90;;;;;;4890603;29;20044;-78
2023/09/04 05:42:17;;;;;;;9.05;4.80;;;14.80;99.90;;;;;;4891413;29;20299;-78
2023/09/04 05:44:43;;;;;;;7.50;5.32;;;14.90;99.90;;;;;;4907634;29;20058;-78
2023/09/04 05:47:08;;;;;;;8.32;4.57;;;15.00;99.90;;;;;;4931147;29;20036;-79
2023/09/04 05:49:34;;;;;;;7.97;4.82;;;15.00;99.90;;;;;;4928935;29;20051;-80
2023/09/04 05:52:00;;;;;;;7.30;5.20;;;15.10;99.90;;;;;;4915413;29;20039;-80
2023/09/04 05:54:26;;;;;;;6.90;4.50;;;15.20;99.90;;;;;;4931588;29;20032;-79
2023/09/04 05:56:52;;;;;;;6.50;4.57;;;15.20;99.90;;;;;;4930411;29;20091;-77
2023/09/04 05:59:17;;;;;;;9.25;4.43;;;15.30;99.90;;;;;;4928886;29;20290;-76
2023/09/04 06:01:43;;;;;;;7.30;4.88;;;15.40;99.90;;;;;;4928779;29;20120;-75
2023/09/04 06:04:11;;;;;;;7.80;4.68;;;15.50;99.90;;;;;;4928531;29;20063;-77
2023/09/04 06:06:38;;;;;;;6.30;3.83;;;15.60;99.90;;;;;;4928036;29;20357;-77
2023/09/04 06:09:06;;;;;;;8.50;5.00;;;15.80;99.90;;;;;;4928465;29;20035;-75
2023/09/04 06:11:32;;;;;;;7.85;4.57;;;15.90;99.90;;;;;;4928641;29;20059;-75
2023/09/04 06:13:57;;;;;;;6.65;4.35;;;16.10;99.90;;;;;;4928753;29;20043;-76
2023/09/04 06:16:23;;;;;;;9.75;4.15;;;16.20;99.90;;;;;;4927478;29;20036;-75
2023/09/04 06:18:49;;;;;;;7.35;3.78;;;16.30;99.90;;;;;;4928119;29;20095;-76
2023/09/04 06:21:15;;;;;;;8.13;4.32;;;16.50;99.90;;;;;;4922892;29;20337;-76
2023/09/04 06:27:58;;;;;;;6.10;3.90;;;16.70;99.90;;;;;;4915010;29;20055;-76
2023/09/04 06:30:46;;;;;;;8.60;4.50;;;16.80;99.90;;;;;;4927250;29;20364;-76
2023/09/04 06:33:12;;;;;;;6.35;3.97;;;16.90;99.90;;;;;;4928155;29;20032;-77
2023/09/04 06:35:37;;;;;;;7.32;4.25;;;16.90;99.90;;;;;;4928526;29;20052;-78
2023/09/04 06:38:03;;;;;;;11.38;4.75;;;17.00;99.90;;;;;;4926718;29;20083;-77
2023/09/04 06:40:29;;;;;;;7.30;4.60;;;17.20;99.90;;;;;;4916723;29;20125;-77
2023/09/04 06:42:55;;;;;;;8.40;4.30;;;17.20;99.90;;;;;;4908165;29;20040;-78
2023/09/04 06:45:21;;;;;;;8.90;4.45;;;17.30;99.90;;;;;;4907813;29;20100;-79
2023/09/04 06:47:47;;;;;;;8.20;4.53;;;17.40;99.90;;;;;;4909457;29;20092;-78
2023/09/04 06:50:41;;;;;;;10.50;5.35;;;17.40;99.90;;;;;;4922888;29;20062;-78
2023/09/04 06:57:02;;;;;;;8.13;4.60;;;17.60;99.90;;;;;;4927679;29;20023;-76
2023/09/04 06:59:27;;;;;;;8.90;4.65;;;17.80;99.90;;;;;;4926160;29;20277;-74
2023/09/04 07:01:53;;;;;;;8.65;4.22;;;17.90;99.90;;;;;;4928005;29;20033;-73
2023/09/04 07:04:19;;;;;;;6.80;4.28;;;18.00;99.90;;;;;;4927025;29;20048;-74
2023/09/04 07:06:44;;;;;;;8.23;4.13;;;18.00;99.90;;;;;;4926575;29;20040;-75
2023/09/04 07:09:10;;;;;;;7.65;4.32;;;18.20;99.90;;;;;;4926717;29;20230;-74
2023/09/04 07:11:36;;;;;;;6.18;4.15;;;18.30;99.90;;;;;;4927600;29;20039;-76
2023/09/04 07:14:02;;;;;;;6.35;3.92;;;18.40;99.90;;;;;;4927219;29;20092;-76
2023/09/04 07:16:28;;;;;;;7.28;3.85;;;18.50;99.90;;;;;;4919643;29;20040;-75
2023/09/04 07:19:11;;;;;;;5.32;3.67;;;18.60;99.90;;;;;;4908264;29;20035;-80
2023/09/04 07:21:40;;;;;;;5.88;3.45;;;18.70;99.90;;;;;;4907860;29;20375;-73
2023/09/04 07:24:06;;;;;;;6.05;4.05;;;18.80;99.90;;;;;;4907631;29;20397;-74
2023/09/04 07:26:32;;;;;;;6.32;4.10;;;18.80;99.90;;;;;;4908382;29;20187;-74
2023/09/04 07:28:58;;;;;;;6.97;4.00;;;19.00;99.90;;;;;;4890917;29;20047;-75
2023/09/04 07:31:26;;;;;;;5.15;3.63;;;19.10;99.90;;;;;;4911719;29;20051;-74
2023/09/04 07:33:55;;;;;;;8.00;3.60;;;19.20;99.90;;;;;;4927134;29;20024;-75
2023/09/04 07:36:26;;;;;;;5.72;3.28;;;19.40;99.90;;;;;;4926640;29;20063;-75
2023/09/04 07:38:55;;;;;;;4.97;3.50;;;19.40;99.90;;;;;;4928831;29;20111;-74
2023/09/04 07:41:21;;;;;;;5.88;3.90;;;19.50;99.90;;;;;;4926513;29;20039;-76
2023/09/04 07:43:46;;;;;;;5.03;3.85;;;19.60;99.90;;;;;;4925316;29;20372;-74
2023/09/04 07:46:12;;;;;;;4.95;3.40;;;19.70;99.90;;;;;;4926233;29;20321;-76
2023/09/04 07:48:38;;;;;;;5.20;3.70;;;19.70;99.90;;;;;;4926817;29;20028;-75
2023/09/04 07:51:05;;;;;;;5.82;3.65;;;19.90;99.90;;;;;;4926042;29;20036;-75
2023/09/04 07:53:31;;;;;;;5.43;3.72;;;20.00;99.90;;;;;;4926902;29;20040;-75
2023/09/04 07:55:57;;;;;;;7.03;3.50;;;20.20;99.90;;;;;;4926454;29;20091;-75
2023/09/04 07:58:25;;;;;;;4.40;3.40;;;20.20;99.90;;;;;;4926238;29;20044;-76
2023/09/04 08:00:54;;;;;;;5.78;3.42;;;20.30;99.90;;;;;;4926565;29;20031;-73
2023/09/04 08:03:20;;;;;;;5.82;2.95;;;20.40;99.90;;;;;;4924673;29;20035;-74
2023/09/04 08:05:55;;;;;;;5.80;3.25;;;20.40;99.90;;;;;;4925654;29;20031;-74
2023/09/04 08:08:20;;;;;;;5.07;2.83;;;20.50;99.90;;;;;;4925929;29;20036;-74
2023/09/04 08:10:50;;;;;;;6.57;3.20;;;20.60;99.60;;;;;;4926532;29;20329;-74
2023/09/04 08:13:26;;;;;;;49.08;8.40;;;20.70;99.70;;;;;;4925594;29;20402;-74
2023/09/04 08:16:21;;;;;;;4.47;2.92;;;20.80;99.40;;;;;;4920090;29;20107;-74
2023/09/04 08:18:46;;;;;;;6.18;2.92;;;20.90;98.40;;;;;;4906305;29;20107;-76
2023/09/04 08:21:18;;;;;;;5.97;3.05;;;20.90;98.40;;;;;;4905995;29;20028;-74
2023/09/04 08:24:09;;;;;;;4.63;3.20;;;21.00;98.10;;;;;;4905842;29;20369;-74
2023/09/04 08:26:35;;;;;;;4.10;2.92;;;21.10;97.90;;;;;;4906685;29;20036;-73
2023/09/04 08:29:00;;;;;;;5.80;3.58;;;21.20;97.70;;;;;;4907466;29;20031;-75
2023/09/04 08:31:44;;;;;;;5.38;3.30;;;21.20;97.20;;;;;;4906207;29;20052;-74
2023/09/04 08:34:09;;;;;;;7.22;3.80;;;21.30;96.70;;;;;;4907080;29;20052;-73
2023/09/04 08:36:35;;;;;;;5.85;3.75;;;21.40;96.30;;;;;;4907010;29;20035;-76
2023/09/04 08:39:01;;;;;;;4.85;3.40;;;21.50;96.40;;;;;;4907225;29;20037;-74
2023/09/04 08:41:29;;;;;;;8.80;3.63;;;21.70;96.00;;;;;;4906492;29;20036;-74
2023/09/04 08:43:57;;;;;;;6.60;3.47;;;21.90;95.30;;;;;;4910750;29;20036;-74
2023/09/04 08:46:35;;;;;;;7.63;3.17;;;22.00;94.00;;;;;;4925013;29;20049;-74
2023/09/04 08:49:04;;;;;;;4.78;3.30;;;22.20;93.70;;;;;;4910960;29;20040;-74
2023/09/04 08:51:36;;;;;;;6.28;3.30;;;22.40;93.10;;;;;;4909761;29;20040;-75
2023/09/04 08:54:07;;;;;;;6.50;3.20;;;22.50;93.40;;;;;;4935859;29;20114;-74
2023/09/04 08:56:33;;;;;;;3.70;2.42;;;22.60;91.80;;;;;;4948874;29;20460;-75
2023/09/04 08:58:59;;;;;;;6.25;3.47;;;22.70;91.90;;;;;;4948734;29;20257;-76
2023/09/04 09:01:33;;;;;;;4.30;2.63;;;22.80;91.30;;;;;;4947267;29;20016;-75
2023/09/04 09:04:04;;;;;;;4.07;2.65;;;22.90;90.40;;;;;;4948634;29;20341;-76
2023/09/04 09:06:30;;;;;;;4.15;2.70;;;22.90;90.10;;;;;;4948468;29;20039;-74
2023/09/04 09:09:00;;;;;;;15.90;3.88;;;23.00;90.20;;;;;;4948743;29;20063;-77
2023/09/04 09:11:26;;;;;;;3.78;2.47;;;23.30;90.00;;;;;;4948094;29;20106;-76
2023/09/04 09:13:52;;;;;;;3.72;2.47;;;23.40;88.00;;;;;;4948623;29;20225;-74
2023/09/04 09:16:19;;;;;;;8.13;2.50;;;23.50;88.30;;;;;;4935032;29;20028;-74
2023/09/04 09:18:46;;;;;;;3.45;2.20;;;23.50;87.20;;;;;;4910557;29;20370;-76
2023/09/04 09:21:22;;;;;;;6.38;2.65;;;23.50;86.20;;;;;;4909877;29;20059;-75
2023/09/04 09:23:48;;;;;;;3.42;2.50;;;23.50;86.80;;;;;;4925709;29;20036;-74
2023/09/04 09:26:14;;;;;;;5.00;2.78;;;23.60;86.50;;;;;;4928877;29;20032;-75
2023/09/04 09:28:44;;;;;;;3.55;2.30;;;23.60;85.50;;;;;;4929094;29;20032;-74
2023/09/04 09:31:11;;;;;;;4.28;2.80;;;23.60;84.20;;;;;;4927405;29;20036;-74
2023/09/04 09:33:38;;;;;;;3.63;2.40;;;23.60;84.40;;;;;;4930732;29;20040;-74
2023/09/04 09:36:11;;;;;;;3.53;2.35;;;23.60;83.40;;;;;;4935139;29;20171;-76
2023/09/04 09:38:43;;;;;;;3.80;2.80;;;23.60;83.40;;;;;;4935959;29;20032;-74
2023/09/04 09:41:12;;;;;;;3.22;2.35;;;23.70;83.20;;;;;;4938447;29;20044;-76
2023/09/04 09:43:46;;;;;;;3.20;1.95;;;23.80;83.70;;;;;;4929483;29;20032;-75
2023/09/04 09:46:16;;;;;;;4.95;2.60;;;23.80;83.10;;;;;;4928785;29;20044;-75
2023/09/04 09:48:48;;;;;;;5.13;2.60;;;23.90;81.70;;;;;;4927856;29;20218;-75
2023/09/04 09:51:14;;;;;;;7.97;3.03;;;24.00;81.20;;;;;;4928079;29;20124;-76
2023/09/04 09:53:51;;;;;;;3.55;2.75;;;24.20;81.50;;;;;;4938003;29;20040;-76
2023/09/04 09:56:18;;;;;;;5.68;2.30;;;24.30;79.60;;;;;;4946027;29;20036;-74
2023/09/04 09:58:48;;;;;;;4.00;2.45;;;24.40;79.80;;;;;;4947585;29;20233;-77
2023/09/04 10:01:16;;;;;;;3.78;2.30;;;24.40;79.20;;;;;;4922472;29;20032;-73
2023/09/04 10:03:44;;;;;;;4.03;2.67;;;24.40;78.80;;;;;;4911611;29;20032;-74
2023/09/04 10:06:14;;;;;;;;;;;24.60;78.50;;;;;;4928596;29;20040;-75
2023/09/04 10:08:42;;;;;;;3.65;2.40;;;24.60;78.40;;;;;;4925924;29;20210;-75
2023/09/04 10:11:14;;;;;;;4.00;2.72;;;24.70;77.10;;;;;;4928358;29;20321;-78
2023/09/04 10:13:53;;;;;;;4.22;2.33;;;24.70;77.20;;;;;;4928415;29;20046;-75
2023/09/04 10:16:28;;;;;;;;;;;24.90;75.50;;;;;;4924056;29;20036;-75
2023/09/04 10:18:55;;;;;;;3.58;2.15;;;24.90;75.40;;;;;;4928284;29;19907;-74
2023/09/04 10:21:35;;;;;;;3.97;2.45;;;25.00;76.30;;;;;;4927930;29;20044;-75
2023/09/04 10:24:03;;;;;;;4.57;2.10;;;25.10;75.80;;;;;;4928146;29;20317;-75
2023/09/04 10:26:41;;;;;;;5.32;2.08;;;25.20;74.30;;;;;;4927741;29;20078;-73
2023/09/04 10:29:18;;;;;;;3.10;2.17;;;25.30;73.10;;;;;;4927628;29;20099;-76
2023/09/04 10:31:56;;;;;;;2.83;1.92;;;25.30;73.80;;;;;;4927042;29;20237;-76
2023/09/04 10:34:22;;;;;;;3.33;2.15;;;25.40;74.40;;;;;;4918016;29;20040;-74
2023/09/04 10:36:48;;;;;;;4.72;2.28;;;25.60;74.20;;;;;;4908995;29;20433;-76
2023/09/04 10:39:17;;;;;;;6.43;2.40;;;25.60;73.40;;;;;;4908878;29;20032;-76
2023/09/04 10:41:47;;;;;;;3.05;2.10;;;25.80;74.20;;;;;;4909129;29;20137;-76
2023/09/04 10:47:52;;;;;;;3.40;1.95;;;26.00;72.80;;;;;;4909306;29;20099;-75
2023/09/04 10:50:37;;;;;;;4.22;2.30;;;26.00;72.50;;;;;;4908324;29;20040;-75
2023/09/04 10:53:06;;;;;;;4.25;2.15;;;26.10;71.20;;;;;;4932158;29;20031;-75
2023/09/04 10:55:33;;;;;;;3.50;2.38;;;26.20;71.60;;;;;;4945451;29;20103;-77
2023/09/04 10:58:07;;;;;;;4.10;2.55;;;26.20;71.70;;;;;;4945664;29;20039;-79
2023/09/04 11:00:38;;;;;;;3.40;2.38;;;26.40;72.60;;;;;;4939116;29;20031;-77
2023/09/04 11:03:23;;;;;;;4.72;2.25;;;26.50;72.30;;;;;;4926038;29;20039;-76
2023/09/04 11:06:09;;;;;;;3.20;2.40;;;26.70;70.40;;;;;;4935223;29;20028;-77
2023/09/04 11:08:38;;;;;;;3.75;2.30;;;26.90;70.50;;;;;;4927696;29;20071;-75
2023/09/04 11:11:08;;;;;;;3.15;1.73;;;27.20;70.50;;;;;;4927007;29;20345;-80
2023/09/04 11:13:37;;;;;;;13.80;3.50;;;27.50;66.40;;;;;;4943777;29;20326;-74
2023/09/04 11:16:04;;;;;;;5.55;2.08;;;27.90;68.50;;;;;;4936346;29;20040;-74
2023/09/04 11:18:35;;;;;;;3.20;2.03;;;28.40;67.40;;;;;;4907639;29;20040;-75
2023/09/04 11:21:14;;;;;;;3.45;1.95;;;29.20;68.20;;;;;;4923818;29;20039;-75
2023/09/04 11:23:46;;;;;;;3.25;1.90;;;30.20;64.80;;;;;;4913862;29;20043;-76
2023/09/04 11:26:18;;;;;;;2.70;1.85;;;31.20;62.00;;;;;;4927029;29;20047;-74
2023/09/04 11:29:03;;;;;;;4.40;1.90;;;32.10;60.20;;;;;;4926802;29;20055;-75
2023/09/04 11:31:33;;;;;;;5.57;2.00;;;32.80;59.40;;;;;;4909876;29;20032;-74
2023/09/04 11:33:59;;;;;;;4.65;1.67;;;33.40;57.00;;;;;;4926661;29;20214;-75
2023/09/04 11:36:25;;;;;;;2.50;1.53;;;34.00;56.10;;;;;;4908882;29;20036;-73
2023/09/04 11:39:04;;;;;;;2.25;1.45;;;34.40;54.80;;;;;;4923365;29;20754;-75
2023/09/04 11:41:31;;;;;;;2.10;1.45;;;35.10;53.30;;;;;;4945243;29;20079;-74
2023/09/04 11:43:56;;;;;;;4.53;1.67;;;35.40;51.20;;;;;;4945851;29;20317;-74
2023/09/04 11:46:22;;;;;;;2.35;1.63;;;35.80;51.10;;;;;;4945561;29;20035;-75
2023/09/04 11:48:48;;;;;;;3.00;1.77;;;36.10;49.50;;;;;;4945898;29;20035;-75
2023/09/04 11:51:14;;;;;;;4.25;1.80;;;36.20;49.80;;;;;;4945049;29;20377;-75
2023/09/04 11:53:40;;;;;;;2.50;1.52;;;36.60;48.60;;;;;;4935098;29;20024;-72
2023/09/04 11:56:06;;;;;;;2.30;1.35;;;36.40;46.80;;;;;;4926601;29;20036;-73
2023/09/04 11:58:33;;;;;;;2.28;1.45;;;36.30;47.10;;;;;;4926059;29;20323;-75
2023/09/04 12:01:00;;;;;;;2.85;1.60;;;36.50;45.50;;;;;;4926659;29;20055;-74
2023/09/04 12:03:25;;;;;;;2.10;1.50;;;36.40;45.40;;;;;;4926157;29;20036;-76
2023/09/04 12:05:51;;;;;;;3.95;1.50;;;36.40;46.30;;;;;;4926757;29;20365;-74
2023/09/04 12:08:18;;;;;;;3.13;1.88;;;37.00;45.60;;;;;;4925809;29;20247;-74
2023/09/04 12:10:44;;;;;;;2.10;1.50;;;37.30;44.70;;;;;;4926477;29;20040;-74
2023/09/04 12:13:12;;;;;;;2.58;1.45;;;37.70;44.20;;;;;;4925986;29;20059;-74
2023/09/04 12:15:38;;;;;;;2.10;1.48;;;37.50;44.70;;;;;;4920821;29;20051;-74
2023/09/04 12:18:05;;;;;;;2.55;1.50;;;38.00;45.90;;;;;;4906839;29;20036;-74
2023/09/04 12:20:34;;;;;;;;;;;38.60;45.50;;;;;;4907586;29;20052;-74
2023/09/04 12:23:00;;;;;;;3.97;1.75;;;39.10;43.70;;;;;;4907491;29;20183;-73
2023/09/04 12:25:37;;;;;;;10.98;1.90;;;38.40;45.10;;;;;;4914929;29;20020;-74
2023/09/04 12:28:11;;;;;;;3.47;1.63;;;37.70;47.40;;;;;;4926313;29;20040;-75
2023/09/04 12:30:44;;;;;;;4.05;1.30;;;37.70;44.00;;;;;;4926173;29;20047;-75
2023/09/04 12:33:14;;;;;;;3.60;1.83;;;37.90;44.40;;;;;;4926110;29;20032;-73
2023/09/04 12:35:43;;;;;;;3.45;1.60;;;37.90;44.40;;;;;;4920933;29;20044;-74
2023/09/04 12:38:10;;;;;;;2.67;1.35;;;38.50;43.10;;;;;;4926300;29;20044;-76
2023/09/04 12:40:36;;;;;;;2.03;1.50;;;39.00;45.00;;;;;;4926359;29;20337;-74
2023/09/04 12:43:03;;;;;;;2.85;1.33;;;39.60;43.30;;;;;;4926269;29;20036;-74
2023/09/04 12:45:29;;;;;;;2.10;1.40;;;39.90;43.20;;;;;;4924951;29;20107;-74
2023/09/04 12:47:59;;;;;;;2.50;1.50;;;39.80;43.00;;;;;;4926072;29;20693;-74
2023/09/04 12:50:25;;;;;;;3.28;1.77;;;40.40;42.40;;;;;;4925420;29;20044;-73
2023/09/04 12:52:51;;;;;;;4.63;1.60;;;40.20;41.90;;;;;;4922495;29;20043;-73
2023/09/04 12:55:17;;;;;;;4.03;1.73;;;39.50;42.50;;;;;;4924582;29;20023;-71
2023/09/04 12:57:47;;;;;;;2.65;1.90;;;39.80;43.20;;;;;;4926088;29;20043;-76
2023/09/04 13:00:13;;;;;;;2.83;1.60;;;40.20;41.50;;;;;;4925684;29;20229;-73
2023/09/04 13:02:39;;;;;;;5.18;1.63;;;40.90;41.50;;;;;;4925895;29;20036;-73
2023/09/04 13:05:05;;;;;;;4.25;1.80;;;41.30;40.40;;;;;;4913510;29;20104;-73
2023/09/04 13:07:32;;;;;;;3.08;1.90;;;41.70;40.40;;;;;;4907331;29;20051;-75
2023/09/04 13:09:59;;;;;;;3.28;1.50;;;40.90;40.00;;;;;;4925953;29;20031;-73
2023/09/04 13:12:25;;;;;;;2.20;1.33;;;40.80;41.00;;;;;;4925572;29;20032;-74
2023/09/04 13:14:51;;;;;;;2.72;1.70;;;41.10;42.10;;;;;;4925773;29;20080;-74
2023/09/04 13:17:16;;;;;;;2.85;1.70;;;42.40;41.20;;;;;;4925419;29;20028;-74
2023/09/04 13:19:42;;;;;;;8.18;1.60;;;43.30;41.30;;;;;;4924656;29;20040;-75
2023/09/04 13:22:08;;;;;;;5.57;1.80;;;43.70;40.60;;;;;;4925912;29;20044;-74
2023/09/04 13:24:33;;;;;;;4.95;1.90;;;44.00;40.30;;;;;;4919803;29;20259;-74
2023/09/04 13:26:59;;;;;;;5.25;1.67;;;43.90;39.80;;;;;;4925994;29;20032;-73
2023/09/04 13:29:25;;;;;;;4.70;1.80;;;44.70;40.10;;;;;;4925343;29;20044;-74
2023/09/04 13:31:50;;;;;;;5.20;1.77;;;44.40;39.80;;;;;;4929475;29;20080;-74
2023/09/04 13:34:16;;;;;;;2.72;1.75;;;44.40;39.20;;;;;;4924984;29;20092;-74
2023/09/04 13:36:42;;;;;;;2.95;1.40;;;44.20;39.20;;;;;;4927200;29;20332;-74
2023/09/04 13:39:07;;;;;;;2.75;2.05;;;43.90;39.30;;;;;;4929258;29;20035;-74
2023/09/04 13:41:33;;;;;;;3.15;1.63;;;43.20;38.90;;;;;;4928742;29;20242;-74
2023/09/04 13:43:59;;;;;;;4.47;1.27;;;42.90;39.30;;;;;;4927834;29;20036;-74
2023/09/04 13:46:24;;;;;;;3.95;1.77;;;42.90;39.20;;;;;;4928456;29;20043;-72
2023/09/04 13:48:50;;;;;;;3.47;1.45;;;43.40;38.50;;;;;;4928988;29;20067;-72
2023/09/04 13:51:16;;;;;;;2.78;1.83;;;43.80;38.20;;;;;;4928408;29;20116;-73
2023/09/04 13:53:41;;;;;;;2.97;1.80;;;44.00;38.80;;;;;;4939429;29;20070;-74
2023/09/04 13:56:07;;;;;;;2.78;1.70;;;44.20;38.40;;;;;;4947616;29;20369;-74
2023/09/04 13:58:33;;;;;;;2.58;1.75;;;44.70;39.20;;;;;;4946331;29;20233;-74
2023/09/04 14:00:58;;;;;;;3.85;2.20;;;45.00;37.80;;;;;;4943990;29;20028;-73
2023/09/04 14:03:24;;;;;;;2.78;1.80;;;45.00;37.50;;;;;;4927936;29;20054;-73
2023/09/04 14:05:50;;;;;;;4.73;2.10;;;45.30;37.30;;;;;;4928378;29;20031;-75
2023/09/04 14:08:16;;;;;;;4.55;1.70;;;44.80;36.80;;;;;;4928297;29;20099;-74
2023/09/04 14:10:43;;;;;;;2.78;1.92;;;44.80;37.90;;;;;;4960147;28;20126;-75
2023/09/04 14:13:12;;;;;;;;;;;44.80;37.00;;;;;;4972718;28;20058;-76
2023/09/04 14:15:38;;;;;;;3.20;1.67;;;45.00;38.00;;;;;;4972753;28;19922;-74
2023/09/04 14:18:04;;;;;;;2.92;1.85;;;45.30;37.10;;;;;;4971614;29;20030;-75
2023/09/04 14:20:29;;;;;;;2.30;1.58;;;44.80;37.30;;;;;;4966200;29;20031;-74
2023/09/04 14:22:55;;;;;;;3.10;1.90;;;44.70;37.10;;;;;;4966894;29;20278;-76
2023/09/04 14:25:21;;;;;;;2.50;1.70;;;44.80;37.20;;;;;;4949176;29;20043;-75
2023/09/04 14:27:47;;;;;;;4.43;1.77;;;45.00;37.80;;;;;;4966385;29;20111;-76
2023/09/04 14:30:13;;;;;;;3.70;1.67;;;45.30;38.10;;;;;;4966428;29;20316;-76
2023/09/04 14:32:38;;;;;;;2.67;1.80;;;45.50;37.40;;;;;;4966368;29;20023;-73
2023/09/04 14:35:04;;;;;;;2.70;1.80;;;45.50;37.30;;;;;;4966192;29;20031;-75
2023/09/04 14:37:30;;;;;;;3.00;1.65;;;45.10;37.70;;;;;;4960425;29;20411;-75
2023/09/04 14:40:00;;;;;;;2.28;1.70;;;44.90;37.40;;;;;;4966075;28;20031;-75
2023/09/04 14:42:29;;;;;;;2.65;1.60;;;45.40;36.70;;;;;;4948273;29;20118;-74
2023/09/04 14:44:55;;;;;;;3.28;1.77;;;45.80;37.00;;;;;;4965864;29;20106;-75
2023/09/04 14:47:21;;;;;;;2.38;1.70;;;46.40;36.40;;;;;;4960849;29;20044;-74
2023/09/04 14:49:50;;;;;;;2.45;1.80;;;46.70;35.80;;;;;;4965726;29;20098;-75
2023/09/04 14:52:16;;;;;;;2.75;1.80;;;46.60;35.50;;;;;;4965532;29;20059;-74
2023/09/04 14:54:42;;;;;;;2.13;1.60;;;46.40;36.20;;;;;;4984799;28;20363;-73
2023/09/04 14:57:08;;;;;;;3.17;1.70;;;46.50;36.40;;;;;;4985340;28;20050;-76
2023/09/04 14:59:34;;;;;;;2.90;1.80;;;47.10;36.20;;;;;;4984302;28;20319;-74
2023/09/04 15:02:00;;;;;;;3.50;1.80;;;47.30;35.30;;;;;;4973036;28;20031;-74
2023/09/04 15:04:27;;;;;;;2.92;1.88;;;46.60;35.50;;;;;;4964044;29;20055;-75
2023/09/04 15:06:53;;;;;;;2.75;1.73;;;47.20;35.80;;;;;;4965668;29;20031;-73
2023/09/04 15:09:18;;;;;;;2.30;1.70;;;46.80;36.60;;;;;;4959258;29;20094;-73
2023/09/04 15:11:44;;;;;;;3.03;2.03;;;47.00;35.30;;;;;;4965507;29;20665;-75
2023/09/04 15:14:10;;;;;;;4.43;2.00;;;46.60;35.50;;;;;;4965880;28;20191;-76
2023/09/04 15:16:36;;;;;;;3.97;2.03;;;46.10;35.10;;;;;;4965012;29;20042;-74
2023/09/04 15:19:01;;;;;;;3.97;2.20;;;45.30;35.20;;;;;;4959021;29;20031;-75
2023/09/04 15:21:27;;;;;;;2.28;1.55;;;45.30;34.70;;;;;;4964921;28;20043;-75
2023/09/04 15:23:53;;;;;;;3.17;1.70;;;45.00;35.10;;;;;;4982729;28;20069;-75
2023/09/04 15:26:18;;;;;;;2.63;1.98;;;44.70;35.30;;;;;;4983001;28;20039;-74
2023/09/04 15:28:44;;;;;;;2.92;1.75;;;44.60;35.20;;;;;;4984601;28;20258;-75
2023/09/04 15:31:10;;;;;;;2.50;1.92;;;44.70;35.30;;;;;;4983491;28;20082;-75
2023/09/04 15:33:35;;;;;;;5.63;2.10;;;45.60;35.00;;;;;;4984416;28;20357;-74
2023/09/04 15:36:01;;;;;;;2.97;1.80;;;45.90;35.30;;;;;;4983860;28;20038;-75
2023/09/04 15:38:28;;;;;;;2.87;2.10;;;45.90;34.70;;;;;;4972855;28;20039;-75
2023/09/04 15:40:54;;;;;;;;;;;46.00;35.70;;;;;;4946411;29;20046;-75
2023/09/04 15:43:20;;;;;;;3.47;1.90;;;46.40;34.90;;;;;;4944363;29;20153;-75
2023/09/04 15:45:46;;;;;;;4.95;2.00;;;46.70;35.60;;;;;;4945910;29;20048;-74
2023/09/04 15:48:14;;;;;;;2.50;1.73;;;46.70;36.40;;;;;;4945191;29;20298;-74
2023/09/04 15:50:40;;;;;;;2.90;1.58;;;46.60;36.30;;;;;;4962588;29;20047;-74
2023/09/04 15:53:06;;;;;;;3.77;1.70;;;46.00;37.80;;;;;;4962987;28;20043;-73
2023/09/04 15:55:32;;;;;;;3.45;1.70;;;46.40;37.00;;;;;;4964699;28;20038;-74
2023/09/04 15:57:57;;;;;;;2.95;1.88;;;45.80;36.20;;;;;;4965079;29;20304;-75
2023/09/04 16:00:25;;;;;;;2.67;2.05;;;45.60;36.60;;;;;;4964643;29;20027;-76
2023/09/04 16:02:50;;;;;;;4.22;1.60;;;45.40;36.80;;;;;;4965146;29;20143;-74
2023/09/04 16:05:16;;;;;;;3.13;1.92;;;45.00;37.30;;;;;;4964269;29;20241;-76
2023/09/04 16:07:42;;;;;;;3.22;1.80;;;44.90;37.00;;;;;;4965069;29;20034;-75
2023/09/04 16:10:08;;;;;;;3.88;1.80;;;44.90;36.90;;;;;;4964512;29;20035;-74
2023/09/04 16:12:35;;;;;;;2.95;1.90;;;45.10;37.30;;;;;;4964328;29;20047;-74
2023/09/04 16:15:01;;;;;;;3.33;1.83;;;45.10;37.10;;;;;;4964884;29;20309;-74
2023/09/04 16:17:26;;;;;;;3.72;1.60;;;44.90;37.20;;;;;;4964747;29;20213;-73
2023/09/04 16:19:53;;;;;;;2.90;2.00;;;45.20;37.70;;;;;;4964403;29;20049;-75
2023/09/04 16:22:20;;;;;;;2.63;1.63;;;45.10;37.00;;;;;;4969526;28;20214;-75
2023/09/04 16:24:45;;;;;;;2.58;1.58;;;44.70;38.50;;;;;;4983934;28;20038;-75
2023/09/04 16:27:11;;;;;;;3.70;2.10;;;44.90;37.80;;;;;;4984265;28;20055;-75
2023/09/04 16:29:37;;;;;;;3.00;2.00;;;44.70;38.00;;;;;;4983684;28;20096;-75
2023/09/04 16:32:03;;;;;;;2.67;1.95;;;44.60;38.20;;;;;;4966343;28;20343;-76
2023/09/04 16:34:29;;;;;;;3.17;2.10;;;44.70;38.50;;;;;;4983379;28;20023;-75
2023/09/04 16:36:54;;;;;;;3.75;1.88;;;44.70;38.10;;;;;;4984001;28;20193;-74
2023/09/04 16:39:20;;;;;;;4.22;1.77;;;44.30;38.10;;;;;;4983438;28;20062;-75
2023/09/04 16:41:46;;;;;;;3.13;1.77;;;44.20;38.50;;;;;;4983760;28;20332;-75
2023/09/04 16:44:11;;;;;;;3.25;1.60;;;43.60;38.40;;;;;;4983513;28;20082;-75
2023/09/04 16:46:37;;;;;;;4.22;1.90;;;43.50;38.80;;;;;;4983693;28;20038;-75
2023/09/04 16:49:03;;;;;;;3.67;2.00;;;43.30;38.90;;;;;;4983518;28;20292;-75
2023/09/04 16:51:29;;;;;;;3.35;2.03;;;43.40;40.20;;;;;;4964506;28;20046;-76
2023/09/04 16:53:54;;;;;;;2.42;1.60;;;43.10;39.20;;;;;;4964834;29;20055;-76
2023/09/04 16:56:20;;;;;;;3.58;1.75;;;42.80;39.90;;;;;;4962707;29;20027;-74
2023/09/04 16:58:46;;;;;;;3.42;2.08;;;42.10;40.20;;;;;;4964345;29;20031;-75
2023/09/04 17:01:12;;;;;;;3.35;2.00;;;41.60;40.50;;;;;;4964579;29;20031;-75
2023/09/04 17:03:38;;;;;;;3.65;1.95;;;41.10;40.10;;;;;;4964469;28;20114;-76
2023/09/04 17:06:04;;;;;;;2.58;1.50;;;39.60;41.50;;;;;;4967983;29;20032;-73
2023/09/04 17:08:35;;;;;;;2.70;1.88;;;38.40;42.40;;;;;;4951086;29;20034;-75
2023/09/04 17:11:02;;;;;;;3.10;2.05;;;36.70;43.60;;;;;;4951222;29;20090;-77
2023/09/04 17:13:41;;;;;;;3.45;2.03;;;35.10;45.70;;;;;;4951186;29;20027;-74
2023/09/04 17:16:12;;;;;;;4.15;2.10;;;33.60;47.30;;;;;;4950801;29;20031;-74